createdAt,value
2019-05-16T00:02:28.459Z,3.70
2019-05-16T00:04:59.193Z,3.33
2019-05-16T00:07:29.162Z,3.85
2019-05-16T00:09:59.002Z,3.23
2019-05-16T00:12:29.284Z,3.70
2019-05-16T00:14:58.773Z,2.77
2019-05-16T00:17:28.589Z,4.03
2019-05-16T00:19:58.942Z,3.10
2019-05-16T00:22:28.856Z,3.10
2019-05-16T00:24:58.203Z,3.50
2019-05-16T00:27:28.075Z,3.20
2019-05-16T00:29:58.247Z,2.90
2019-05-16T00:32:28.211Z,2.93
2019-05-16T00:34:58.358Z,3.00
2019-05-16T00:37:28.826Z,3.23
2019-05-16T00:39:58.810Z,2.80
2019-05-16T00:42:28.740Z,3.83
2019-05-16T00:44:58.522Z,3.33
2019-05-16T00:47:28.467Z,2.87
2019-05-16T00:49:58.319Z,4.13
2019-05-16T00:52:28.837Z,3.20
2019-05-16T00:54:58.367Z,2.70
2019-05-16T00:57:29.292Z,2.90
2019-05-16T00:59:59.824Z,3.33
2019-05-16T01:02:29.907Z,2.83
2019-05-16T01:04:59.352Z,6.23
2019-05-16T01:07:28.744Z,2.95
2019-05-16T01:09:58.405Z,3.07
2019-05-16T01:12:28.382Z,3.20
2019-05-16T01:14:58.478Z,2.90
2019-05-16T01:17:28.438Z,2.60
2019-05-16T01:19:58.013Z,3.57
2019-05-16T01:22:28.969Z,7.83
2019-05-16T01:24:58.667Z,3.50
2019-05-16T01:27:28.050Z,3.87
2019-05-16T01:29:58.349Z,3.73
2019-05-16T01:32:31.821Z,3.40
2019-05-16T01:34:59.107Z,3.37
2019-05-16T01:37:28.518Z,3.13
2019-05-16T01:39:58.708Z,3.17
2019-05-16T01:42:28.254Z,3.30
2019-05-16T01:44:57.909Z,3.50
2019-05-16T01:47:28.786Z,3.00
2019-05-16T01:49:58.228Z,3.70
2019-05-16T01:52:29.053Z,3.43
2019-05-16T02:14:36.243Z,3.00
2019-05-16T02:17:05.755Z,3.10
2019-05-16T02:19:35.110Z,4.63
2019-05-16T02:22:04.558Z,3.87
2019-05-16T02:24:34.170Z,3.47
2019-05-16T02:27:03.540Z,3.17
2019-05-16T02:29:32.933Z,3.13
2019-05-16T02:32:02.317Z,4.07
2019-05-16T02:34:31.668Z,3.50
2019-05-16T02:37:18.240Z,3.43
2019-05-16T02:39:32.148Z,3.70
2019-05-16T02:42:02.252Z,2.97
2019-05-16T02:44:32.211Z,4.23
2019-05-16T02:47:01.922Z,3.43
2019-05-16T02:49:34.177Z,3.70
2019-05-16T02:52:02.994Z,3.37
2019-05-16T02:54:32.354Z,3.10
2019-05-16T02:57:03.320Z,5.92
2019-05-16T02:59:32.685Z,5.37
2019-05-16T03:02:02.043Z,3.60
2019-05-16T03:04:31.492Z,3.70
2019-05-16T03:07:01.922Z,3.20
2019-05-16T03:09:32.690Z,3.83
2019-05-16T03:12:03.888Z,4.77
2019-05-16T03:14:33.379Z,4.33
2019-05-16T03:17:05.035Z,3.67
2019-05-16T03:19:36.752Z,3.67
2019-05-16T03:22:06.876Z,3.33
2019-05-16T03:24:36.244Z,3.33
2019-05-16T03:27:05.615Z,3.70
2019-05-16T03:29:35.435Z,4.27
2019-05-16T03:32:04.784Z,3.80
2019-05-16T03:34:35.180Z,3.50
2019-05-16T03:37:05.251Z,3.10
2019-05-16T03:39:34.826Z,3.97
2019-05-16T03:42:04.196Z,3.30
2019-05-16T03:44:34.275Z,3.43
2019-05-16T03:47:03.661Z,4.80
2019-05-16T03:49:33.020Z,5.10
2019-05-16T03:52:02.747Z,3.97
2019-05-16T03:54:32.118Z,3.63
2019-05-16T03:57:01.479Z,6.77
2019-05-16T03:59:31.610Z,2.97
2019-05-16T04:02:01.702Z,3.40
2019-05-16T04:04:31.171Z,5.37
2019-05-16T04:07:01.369Z,3.47
2019-05-16T04:09:31.603Z,3.27
2019-05-16T04:12:02.134Z,3.60
2019-05-16T04:14:31.544Z,3.47
2019-05-16T04:17:01.599Z,3.30
2019-05-16T04:19:31.541Z,3.20
2019-05-16T04:22:01.526Z,3.23
2019-05-16T04:24:31.813Z,3.50
2019-05-16T04:27:01.287Z,3.97
2019-05-16T04:29:31.531Z,2.70
2019-05-16T04:32:01.786Z,3.20
2019-05-16T04:34:31.406Z,2.90
2019-05-16T04:37:01.437Z,6.63
2019-05-16T04:39:31.887Z,3.33
2019-05-16T04:42:01.768Z,5.83
2019-05-16T04:44:31.325Z,3.10
2019-05-16T04:47:01.739Z,10.32
2019-05-16T04:49:32.156Z,5.50
2019-05-16T04:52:01.799Z,3.30
2019-05-16T04:54:31.173Z,4.33
2019-05-16T04:57:01.953Z,5.57
2019-05-16T04:59:31.483Z,6.23
2019-05-16T05:02:02.153Z,7.30
2019-05-16T05:04:32.095Z,12.27
2019-05-16T05:07:01.485Z,9.27
2019-05-16T05:09:31.930Z,5.63
2019-05-16T05:12:04.577Z,6.40
2019-05-16T05:14:32.885Z,6.57
2019-05-16T05:17:05.203Z,5.17
2019-05-16T05:19:33.374Z,5.53
2019-05-16T05:22:02.747Z,3.80
2019-05-16T05:24:32.116Z,3.57
2019-05-16T05:27:01.483Z,6.20
2019-05-16T05:29:30.864Z,3.47
2019-05-16T05:32:04.472Z,3.77
2019-05-16T05:34:31.338Z,3.40
2019-05-16T05:37:01.026Z,3.03
2019-05-16T05:39:30.485Z,3.20
2019-05-16T05:42:00.138Z,3.43
2019-05-16T05:44:30.708Z,2.67
2019-05-16T05:47:00.941Z,2.67
2019-05-16T05:49:30.412Z,4.37
2019-05-16T05:52:00.812Z,5.07
2019-05-16T05:54:30.967Z,3.67
2019-05-16T05:57:00.750Z,4.17
2019-05-16T05:59:30.779Z,6.07
2019-05-16T06:02:00.984Z,3.90
2019-05-16T06:04:30.665Z,7.50
2019-05-16T06:07:01.155Z,6.50
2019-05-16T06:09:33.021Z,2.90
2019-05-16T06:12:02.542Z,4.57
2019-05-16T06:14:32.018Z,2.73
2019-05-16T06:17:01.424Z,4.83
2019-05-16T06:19:30.848Z,5.43
2019-05-16T06:22:01.286Z,4.77
2019-05-16T06:24:30.879Z,3.77
2019-05-16T06:27:00.918Z,2.73
2019-05-16T06:29:31.185Z,3.00
2019-05-16T06:32:00.612Z,2.60
2019-05-16T06:34:30.282Z,3.50
2019-05-16T06:37:00.630Z,3.13
2019-05-16T06:39:41.615Z,4.20
2019-05-16T06:42:01.145Z,7.17
2019-05-16T06:44:30.992Z,3.77
2019-05-16T06:47:15.980Z,3.17
2019-05-16T06:49:31.594Z,5.90
2019-05-16T06:52:02.061Z,4.87
2019-05-16T06:54:31.427Z,2.80
2019-05-16T06:57:00.900Z,3.00
2019-05-16T06:59:30.406Z,3.00
2019-05-16T07:02:00.439Z,3.10
2019-05-16T07:04:30.452Z,3.47
2019-05-16T07:07:03.075Z,2.87
2019-05-16T07:09:31.183Z,3.27
2019-05-16T07:12:00.559Z,3.30
2019-05-16T07:14:31.344Z,2.53
2019-05-16T07:17:00.916Z,3.13
2019-05-16T07:19:30.269Z,3.47
2019-05-16T07:21:59.918Z,3.67
2019-05-16T07:24:30.561Z,2.90
2019-05-16T07:27:00.409Z,3.10
2019-05-16T07:29:30.864Z,2.80
2019-05-16T07:32:00.632Z,3.20
2019-05-16T07:34:31.233Z,3.20
2019-05-16T07:37:01.305Z,3.00
2019-05-16T07:39:30.847Z,2.87
2019-05-16T07:42:00.384Z,5.60
2019-05-16T07:44:30.976Z,3.00
2019-05-16T07:47:01.134Z,3.57
2019-05-16T07:49:30.685Z,2.40
2019-05-16T07:52:00.580Z,2.67
2019-05-16T07:54:34.451Z,3.93
2019-05-16T07:57:11.621Z,3.30
2019-05-16T07:59:33.096Z,3.30
2019-05-16T08:02:02.465Z,2.67
2019-05-16T08:04:32.089Z,3.73
2019-05-16T08:07:01.621Z,2.20
2019-05-16T08:09:31.030Z,12.07
2019-05-16T08:12:02.273Z,23.67
2019-05-16T08:14:34.959Z,6.63
2019-05-16T08:17:02.612Z,6.47
2019-05-16T08:19:31.969Z,3.60
2019-05-16T08:22:01.563Z,2.17
2019-05-16T08:24:35.911Z,4.73
2019-05-16T08:27:02.048Z,2.00
2019-05-16T08:29:31.852Z,3.60
2019-05-16T08:32:02.125Z,2.53
2019-05-16T08:34:32.367Z,4.07
2019-05-16T08:37:02.005Z,2.10
2019-05-16T08:39:31.423Z,3.90
2019-05-16T08:42:08.055Z,2.20
2019-05-16T08:44:32.561Z,3.20
2019-05-16T08:47:06.223Z,3.47
2019-05-16T08:49:33.159Z,2.30
2019-05-16T08:52:02.547Z,4.07
2019-05-16T08:54:32.128Z,2.50
2019-05-16T08:57:20.875Z,2.53
2019-05-16T09:02:04.614Z,1.83
2019-05-16T09:04:34.515Z,1.87
2019-05-16T09:07:03.991Z,3.30
2019-05-16T09:09:42.540Z,2.30
2019-05-16T09:12:04.641Z,2.57
2019-05-16T09:14:38.623Z,2.07
2019-05-16T09:17:07.469Z,1.93
2019-05-16T09:18:30.895Z,2.10
2019-05-16T09:19:36.898Z,8.90
2019-05-16T09:22:07.414Z,3.93
2019-05-16T09:24:37.681Z,2.03
2019-05-16T09:27:12.372Z,2.73
2019-05-16T09:29:38.590Z,3.53
2019-05-16T09:32:16.658Z,2.17
2019-05-16T09:34:39.221Z,3.70
2019-05-16T09:37:08.750Z,2.70
2019-05-16T09:39:38.079Z,2.33
2019-05-16T09:42:08.322Z,8.40
2019-05-16T09:44:37.738Z,3.77
2019-05-16T09:47:07.667Z,5.13
2019-05-16T09:49:37.343Z,5.03
2019-05-16T09:52:07.572Z,4.33
2019-05-16T09:54:37.962Z,11.43
2019-05-16T09:57:07.713Z,3.13
2019-05-16T09:59:37.200Z,8.20
2019-05-16T10:02:07.248Z,8.33
2019-05-16T10:04:37.228Z,6.87
2019-05-16T10:07:06.864Z,2.63
2019-05-16T10:09:42.086Z,4.77
2019-05-16T10:12:14.988Z,4.30
2019-05-16T10:14:39.049Z,2.33
2019-05-16T10:17:08.498Z,7.80
2019-05-16T10:19:37.881Z,2.70
2019-05-16T10:22:07.550Z,2.57
2019-05-16T10:24:37.549Z,3.10
2019-05-16T10:27:07.024Z,5.23
2019-05-16T10:29:37.733Z,2.20
2019-05-16T10:32:07.848Z,5.90
2019-05-16T10:34:37.220Z,2.70
2019-05-16T10:37:06.630Z,2.20
2019-05-16T10:39:37.603Z,4.43
2019-05-16T10:42:07.010Z,5.23
2019-05-16T10:44:38.391Z,2.53
2019-05-16T10:47:07.757Z,2.40
2019-05-16T10:49:40.864Z,2.50
2019-05-16T10:52:08.342Z,2.33
2019-05-16T10:54:46.466Z,4.23
2019-05-16T10:57:08.877Z,2.25
2019-05-16T10:59:58.005Z,2.60
2019-05-16T11:02:10.241Z,2.13
2019-05-16T11:04:53.767Z,4.10
2019-05-16T11:07:10.808Z,3.60
2019-05-16T11:09:53.504Z,5.13
2019-05-16T11:12:11.241Z,2.30
2019-05-16T11:14:40.610Z,3.10
2019-05-16T11:17:13.012Z,3.27
2019-05-16T11:19:41.152Z,3.53
2019-05-16T11:22:10.557Z,4.13
2019-05-16T11:24:39.968Z,3.60
2019-05-16T11:27:09.355Z,2.53
2019-05-16T11:29:38.880Z,3.53
2019-05-16T11:32:08.243Z,4.77
2019-05-16T11:34:37.600Z,3.90
2019-05-16T11:37:07.178Z,3.07
2019-05-16T11:39:37.121Z,2.50
2019-05-16T11:42:08.074Z,1.93
2019-05-16T11:44:38.222Z,3.23
2019-05-16T11:47:08.494Z,3.57
2019-05-16T11:49:38.148Z,2.87
2019-05-16T11:52:07.921Z,3.77
2019-05-16T11:54:37.547Z,2.63
2019-05-16T11:57:07.279Z,2.77
2019-05-16T11:59:37.514Z,5.03
2019-05-16T12:02:07.032Z,2.30
2019-05-16T12:04:37.622Z,3.90
2019-05-16T12:07:07.598Z,2.47
2019-05-16T12:09:47.131Z,2.83
2019-05-16T12:12:08.881Z,2.30
2019-05-16T12:14:38.867Z,3.03
2019-05-16T12:17:08.231Z,2.90
2019-05-16T12:19:43.480Z,3.53
2019-05-16T12:22:08.752Z,7.90
2019-05-16T12:24:41.299Z,11.93
2019-05-16T12:27:09.266Z,2.20
2019-05-16T12:29:38.627Z,3.47
2019-05-16T12:32:08.448Z,4.53
2019-05-16T12:34:37.935Z,9.40
2019-05-16T12:37:07.701Z,5.03
2019-05-16T12:39:37.852Z,4.63
2019-05-16T12:42:08.536Z,4.57
2019-05-16T12:44:38.067Z,6.77
2019-05-16T12:47:07.794Z,5.33
2019-05-16T12:49:37.305Z,7.40
2019-05-16T12:52:06.997Z,3.83
2019-05-16T12:54:36.943Z,12.70
2019-05-16T12:57:07.029Z,5.23
2019-05-16T12:59:37.413Z,3.93
2019-05-16T13:02:07.700Z,9.23
2019-05-16T13:04:37.793Z,7.57
2019-05-16T13:07:09.236Z,4.00
2019-05-16T13:09:38.552Z,4.30
2019-05-16T13:12:07.935Z,4.13
2019-05-16T13:14:40.250Z,8.70
2019-05-16T13:17:08.392Z,7.50
2019-05-16T13:19:44.276Z,4.43
2019-05-16T13:22:09.069Z,4.17
2019-05-16T13:24:38.745Z,4.13
2019-05-16T13:27:08.594Z,4.43
2019-05-16T13:29:38.099Z,5.03
2019-05-16T13:32:07.869Z,8.77
2019-05-16T13:34:38.122Z,4.17
2019-05-16T13:37:07.932Z,4.83
2019-05-16T13:39:37.254Z,5.03
2019-05-16T13:42:08.095Z,4.97
2019-05-16T13:44:38.050Z,3.20
2019-05-16T13:47:07.849Z,3.60
2019-05-16T13:49:38.753Z,11.73
2019-05-16T13:52:08.263Z,3.47
2019-05-16T13:54:37.641Z,7.67
2019-05-16T13:57:07.161Z,3.67
2019-05-16T13:59:37.386Z,4.30
2019-05-16T14:02:08.178Z,3.20
2019-05-16T14:04:37.622Z,6.87
2019-05-16T14:07:07.848Z,6.93
2019-05-16T14:09:37.985Z,7.83
2019-05-16T14:12:07.427Z,4.30
2019-05-16T14:14:41.946Z,5.47
2019-05-16T14:17:13.999Z,5.87
2019-05-16T14:19:39.054Z,4.53
2019-05-16T14:22:08.508Z,18.27
2019-05-16T14:24:37.868Z,4.40
2019-05-16T14:27:07.232Z,3.30
2019-05-16T14:29:37.674Z,6.87
2019-05-16T14:32:10.264Z,5.67
2019-05-16T14:34:38.916Z,4.20
2019-05-16T14:37:08.364Z,4.53
2019-05-16T14:39:39.414Z,3.90
2019-05-16T14:42:08.770Z,3.95
2019-05-16T14:44:58.389Z,4.30
2019-05-16T14:47:10.857Z,5.20
2019-05-16T14:49:40.234Z,6.17
2019-05-16T14:52:09.603Z,4.07
2019-05-16T14:54:38.963Z,6.60
2019-05-16T14:57:08.710Z,4.90
2019-05-16T14:59:38.096Z,5.73
2019-05-16T15:02:07.696Z,4.60
2019-05-16T15:04:37.761Z,4.70
2019-05-16T15:07:07.339Z,5.00
2019-05-16T15:09:37.999Z,4.50
2019-05-16T15:12:07.926Z,4.97
2019-05-16T15:14:37.696Z,5.40
2019-05-16T15:17:07.254Z,6.10
2019-05-16T15:19:36.628Z,5.90
2019-05-16T15:22:08.070Z,6.97
2019-05-16T15:24:37.633Z,5.17
2019-05-16T15:27:08.332Z,7.67
2019-05-16T15:29:38.286Z,4.97
2019-05-16T15:32:07.647Z,7.58
2019-05-16T15:34:37.982Z,6.47
2019-05-16T15:37:08.177Z,6.90
2019-05-16T15:39:37.784Z,5.30
2019-05-16T15:42:08.197Z,6.57
2019-05-16T15:44:37.810Z,8.33
2019-05-16T15:47:08.132Z,7.40
2019-05-16T15:49:37.921Z,7.43
2019-05-16T15:52:07.532Z,6.47
2019-05-16T15:54:37.778Z,7.77
2019-05-16T15:57:07.139Z,7.27
2019-05-16T15:59:37.549Z,8.13
2019-05-16T16:02:07.481Z,7.50
2019-05-16T16:04:37.465Z,6.93
2019-05-16T16:07:07.848Z,9.33
2019-05-16T16:09:38.016Z,6.10
2019-05-16T16:12:10.515Z,5.80
2019-05-16T16:14:39.158Z,8.43
2019-05-16T16:17:08.976Z,8.87
2019-05-16T16:19:38.329Z,6.67
2019-05-16T16:22:07.984Z,5.80
2019-05-16T16:24:37.367Z,7.13
2019-05-16T16:27:07.340Z,7.63
2019-05-16T16:29:36.920Z,6.07
2019-05-16T16:32:06.544Z,6.40
2019-05-16T16:34:36.718Z,6.30
2019-05-16T16:37:07.706Z,9.80
2019-05-16T16:39:37.820Z,7.87
2019-05-16T16:42:07.778Z,7.83
2019-05-16T16:44:37.257Z,7.53
2019-05-16T16:47:06.904Z,7.60
2019-05-16T16:49:39.613Z,6.80
2019-05-16T16:52:07.715Z,9.77
2019-05-16T16:54:37.201Z,10.60
2019-05-16T16:57:07.829Z,12.70
2019-05-16T16:59:37.876Z,8.10
2019-05-16T17:02:07.329Z,5.80
2019-05-16T17:04:38.823Z,7.03
2019-05-16T17:07:07.946Z,6.87
2019-05-16T17:09:37.349Z,9.43
2019-05-16T17:12:06.930Z,9.53
2019-05-16T17:14:37.011Z,6.47
2019-05-16T17:17:07.713Z,6.30
2019-05-16T17:19:37.150Z,12.63
2019-05-16T17:22:17.097Z,6.50
2019-05-16T17:24:38.151Z,8.40
2019-05-16T17:27:08.287Z,7.33
2019-05-16T17:29:37.817Z,6.17
2019-05-16T17:32:10.203Z,5.60
2019-05-16T17:34:38.487Z,6.73
2019-05-16T17:37:09.667Z,5.93
2019-05-16T17:39:39.336Z,6.47
2019-05-16T17:42:08.702Z,8.40
2019-05-16T17:44:38.109Z,6.47
2019-05-16T17:47:07.487Z,5.97
2019-05-16T17:49:37.262Z,7.00
2019-05-16T17:52:07.034Z,8.70
2019-05-16T17:54:37.339Z,6.50
2019-05-16T17:57:07.549Z,8.50
2019-05-16T17:59:37.938Z,7.93
2019-05-16T18:02:07.579Z,9.63
2019-05-16T18:04:37.661Z,6.50
2019-05-16T18:07:08.073Z,7.93
2019-05-16T18:09:37.540Z,6.57
2019-05-16T18:12:07.058Z,7.07
2019-05-16T18:14:37.283Z,7.27
2019-05-16T18:17:07.528Z,6.70
2019-05-16T18:19:37.389Z,7.27
2019-05-16T18:22:06.863Z,8.30
2019-05-16T18:24:36.904Z,9.07
2019-05-16T18:27:06.836Z,8.33
2019-05-16T18:29:36.589Z,7.43
2019-05-16T18:32:06.955Z,8.67
2019-05-16T18:34:37.610Z,10.30
2019-05-16T18:37:07.209Z,8.07
2019-05-16T18:39:37.042Z,6.43
2019-05-16T18:42:06.616Z,7.17
2019-05-16T18:44:36.779Z,8.13
2019-05-16T18:47:10.936Z,7.40
2019-05-16T18:49:37.371Z,7.00
2019-05-16T18:52:07.077Z,8.47
2019-05-16T18:54:37.514Z,7.70
2019-05-16T18:57:07.265Z,7.93
2019-05-16T18:59:36.988Z,8.10
2019-05-16T19:02:09.914Z,7.50
2019-05-16T19:04:38.029Z,8.83
2019-05-16T19:07:08.009Z,9.57
2019-05-16T19:09:37.661Z,12.13
2019-05-16T19:12:06.991Z,6.80
2019-05-16T19:14:36.932Z,7.53
2019-05-16T19:17:20.642Z,7.13
2019-05-16T19:19:37.806Z,8.07
2019-05-16T19:22:07.758Z,9.53
2019-05-16T19:24:37.131Z,8.13
2019-05-16T19:27:06.853Z,10.00
2019-05-16T19:29:36.987Z,7.33
2019-05-16T19:32:06.809Z,9.33
2019-05-16T19:34:36.326Z,8.13
2019-05-16T19:37:06.981Z,8.53
2019-05-16T19:39:37.210Z,8.13
2019-05-16T19:42:06.857Z,10.03
2019-05-16T19:44:37.053Z,8.00
2019-05-16T19:47:07.238Z,10.73
2019-05-16T19:49:37.132Z,10.03
2019-05-16T19:52:07.429Z,8.77
2019-05-16T19:54:36.832Z,9.93
2019-05-16T19:57:07.307Z,10.70
2019-05-16T19:59:36.892Z,8.97
2019-05-16T20:02:07.667Z,11.40
2019-05-16T20:04:37.302Z,10.40
2019-05-16T20:07:07.504Z,9.77
2019-05-16T20:09:37.767Z,10.27
2019-05-16T20:12:07.755Z,9.50
2019-05-16T20:14:37.343Z,9.50
2019-05-16T20:17:07.388Z,8.30
2019-05-16T20:19:36.997Z,9.87
2019-05-16T20:22:07.724Z,11.73
2019-05-16T20:24:38.546Z,9.70
2019-05-16T20:27:08.267Z,9.67
2019-05-16T20:29:37.684Z,14.33
2019-05-16T20:32:07.793Z,10.87
2019-05-16T20:34:38.268Z,10.27
2019-05-16T20:37:09.259Z,8.30
2019-05-16T20:39:39.185Z,7.20
2019-05-16T20:42:08.636Z,10.83
2019-05-16T20:44:38.023Z,8.50
2019-05-16T20:47:07.459Z,10.07
2019-05-16T20:49:37.413Z,10.30
2019-05-16T20:52:07.264Z,13.23
2019-05-16T20:54:37.680Z,11.47
2019-05-16T20:57:07.150Z,9.97
2019-05-16T20:59:36.965Z,10.77
2019-05-16T21:02:07.077Z,10.73
2019-05-16T21:04:37.446Z,8.87
2019-05-16T21:07:10.911Z,10.17
2019-05-16T21:09:38.031Z,10.50
2019-05-16T21:12:08.279Z,10.43
2019-05-16T21:14:37.921Z,11.13
2019-05-16T21:17:07.316Z,9.60
2019-05-16T21:19:39.227Z,10.00
2019-05-16T21:22:07.957Z,10.03
2019-05-16T21:24:37.491Z,9.97
2019-05-16T21:27:07.159Z,9.13
2019-05-16T21:29:36.989Z,8.13
2019-05-16T21:32:07.441Z,10.37
2019-05-16T21:34:36.981Z,10.03
2019-05-16T21:37:14.574Z,10.37
2019-05-16T21:39:37.491Z,10.20
2019-05-16T21:42:07.579Z,8.33
2019-05-16T21:44:37.489Z,10.63
2019-05-16T21:47:07.100Z,10.53
2019-05-16T21:49:36.972Z,10.27
2019-05-16T21:52:06.522Z,9.37
2019-05-16T21:54:36.778Z,10.10
2019-05-16T21:57:06.357Z,9.10
2019-05-16T21:59:37.552Z,11.37
2019-05-16T22:02:07.191Z,9.87
2019-05-16T22:04:36.800Z,9.53
2019-05-16T22:07:07.305Z,9.73
2019-05-16T22:09:37.194Z,10.40
2019-05-16T22:12:06.886Z,8.80
2019-05-16T22:14:51.575Z,9.90
2019-05-16T22:17:21.121Z,10.50
2019-05-16T22:19:50.492Z,11.40
2019-05-16T22:22:19.948Z,13.40
2019-05-16T22:24:49.469Z,10.87
2019-05-16T22:27:19.344Z,11.50
2019-05-16T22:29:49.980Z,9.73
2019-05-16T22:32:19.660Z,9.90
2019-05-16T22:34:49.038Z,7.90
2019-05-16T22:37:18.569Z,11.90
2019-05-16T22:39:48.023Z,10.43
2019-05-16T22:42:17.770Z,10.40
2019-05-16T22:44:47.154Z,9.57
2019-05-16T22:47:17.191Z,8.90
2019-05-16T22:49:47.575Z,10.77
2019-05-16T22:52:17.350Z,10.23
2019-05-16T22:54:47.602Z,7.77
2019-05-16T22:57:17.711Z,9.87
2019-05-16T22:59:48.073Z,10.27
2019-05-16T23:02:17.513Z,9.83
2019-05-16T23:04:47.516Z,9.47
2019-05-16T23:07:17.158Z,8.17
2019-05-16T23:09:47.196Z,8.87
2019-05-16T23:12:17.379Z,9.67
2019-05-16T23:14:46.952Z,9.27
2019-05-16T23:17:17.272Z,9.23
2019-05-16T23:19:47.467Z,8.67
2019-05-16T23:22:17.111Z,9.27
2019-05-16T23:24:46.518Z,9.27
2019-05-16T23:27:15.850Z,8.30
2019-05-16T23:29:47.274Z,9.13
2019-05-16T23:32:16.666Z,7.67
2019-05-16T23:34:46.639Z,8.47
2019-05-16T23:37:16.113Z,8.37
2019-05-16T23:39:47.465Z,7.97
2019-05-16T23:42:16.593Z,7.77
2019-05-16T23:44:47.329Z,8.53
2019-05-16T23:47:16.953Z,6.37
2019-05-16T23:49:47.352Z,6.90
2019-05-16T23:52:16.974Z,7.85
2019-05-16T23:54:47.495Z,9.13
2019-05-16T23:57:16.967Z,9.13
2019-05-16T23:59:47.295Z,7.97
